Time;durP1;ratioP1;P1;durP2;ratioP2;P2;SDS_P1;SDS_P2;PMS_P1;PMS_P2;Temp;Humidity;BMP_temperature;BMP_pressure;BME280_temperature;BME280_humidity;BME280_pressure;Samples;Min_cycle;Max_cycle;Signal;HPM_P1;HPM_P2
2023/10/11 00:00:51;;;;;;;17.92;9.77;;;;;;;;;;5015557;28;20030;-79
2023/10/11 00:03:32;;;;;;;15.15;9.00;;;;;;;;;;5010515;28;20041;-79
2023/10/11 00:06:04;;;;;;;16.02;9.10;;;;;;;;;;5014643;28;20053;-81
2023/10/11 00:08:39;;;;;;;16.83;9.18;;;;;;;;;;5021396;28;20025;-78
2023/10/11 00:11:07;;;;;;;17.27;9.05;;;;;;;;;;5019302;28;20022;-78
2023/10/11 00:13:35;;;;;;;16.15;9.32;;;358.90;2329.60;;;;;;5013132;28;20042;-81
2023/10/11 00:16:08;;;;;;;16.50;9.82;;;358.80;2329.60;;;;;;5012445;28;20084;-79
2023/10/11 00:18:38;;;;;;;18.10;10.40;;;;;;;;;;5017819;28;20029;-80
2023/10/11 00:21:11;;;;;;;19.35;11.07;;;;;;;;;;5008040;28;20495;-80
2023/10/11 00:23:41;;;;;;;22.05;12.32;;;;;;;;;;5011875;28;20434;-78
2023/10/11 00:26:07;;;;;;;24.92;12.52;;;;;;;;;;5010118;28;20029;-78
2023/10/11 00:28:34;;;;;;;22.00;12.57;;;;;;;;;;5014266;28;20465;-80
2023/10/11 00:31:01;;;;;;;22.60;13.23;;;;;;;;;;5009342;28;20491;-79
2023/10/11 00:33:31;;;;;;;22.33;13.02;;;358.80;2329.60;;;;;;5010109;28;20026;-79
2023/10/11 00:36:00;;;;;;;22.42;13.00;;;358.50;2329.60;;;;;;5013422;28;20033;-79
2023/10/11 00:38:27;;;;;;;22.20;12.88;;;358.50;2329.60;;;;;;5008728;28;20690;-80
2023/10/11 00:41:17;;;;;;;23.33;12.55;;;358.50;2329.60;;;;;;5001846;28;20616;-78
2023/10/11 00:43:52;;;;;;;21.65;12.38;;;358.40;2329.60;;;;;;5015377;28;20022;-80
2023/10/11 00:46:23;;;;;;;21.30;11.70;;;358.40;2329.60;;;;;;5015834;28;20034;-79
2023/10/11 00:48:56;;;;;;;22.02;12.10;;;333.70;2329.60;;;;;;5010412;28;20117;-79
2023/10/11 00:51:26;;;;;;;20.73;11.98;;;333.30;2329.60;;;;;;5012865;28;20056;-79
2023/10/11 00:53:53;;;;;;;21.45;11.90;;;358.40;2329.60;;;;;;5005366;28;20401;-78
2023/10/11 00:56:26;;;;;;;18.20;11.25;;;358.40;2329.60;;;;;;5000775;28;20042;-78
2023/10/11 00:58:54;;;;;;;18.17;11.10;;;358.40;2329.60;;;;;;5007550;28;20109;-79
2023/10/11 01:01:22;;;;;;;19.02;11.23;;;358.40;2329.60;;;;;;5006638;28;20094;-78
2023/10/11 01:03:48;;;;;;;23.08;12.88;;;358.40;2329.60;;;;;;5034390;28;20085;-78
2023/10/11 01:06:13;;;;;;;22.98;13.07;;;333.70;2329.60;;;;;;5009472;28;20061;-81
2023/10/11 01:08:40;;;;;;;23.10;13.23;;;358.40;2329.60;;;;;;5011275;28;20026;-78
2023/10/11 01:11:15;;;;;;;21.88;13.55;;;333.60;2329.60;;;;;;5021731;28;20480;-80
2023/10/11 01:13:42;;;;;;;29.52;15.77;;;333.40;2329.60;;;;;;5013165;28;20499;-80
2023/10/11 01:16:11;;;;;;;27.38;15.70;;;333.20;2329.60;;;;;;5007365;28;20080;-78
2023/10/11 01:18:38;;;;;;;29.00;15.05;;;333.10;2329.60;;;;;;5016993;28;20029;-79
2023/10/11 01:21:04;;;;;;;26.40;15.63;;;332.90;2329.60;;;;;;5007513;28;20026;-78
2023/10/11 01:23:34;;;;;;;31.40;16.80;;;332.90;2329.60;;;;;;5009149;28;20022;-78
2023/10/11 01:26:08;;;;;;;27.88;16.65;;;332.90;2329.60;;;;;;5008743;28;20030;-80
2023/10/11 01:28:45;;;;;;;27.02;15.65;;;332.90;2329.60;;;;;;5010729;28;20027;-78
2023/10/11 01:31:16;;;;;;;26.92;14.60;;;333.00;2329.60;;;;;;5004623;28;20037;-80
2023/10/11 01:33:44;;;;;;;26.90;15.77;;;333.50;2329.60;;;;;;5002487;28;20034;-81
2023/10/11 01:36:22;;;;;;;33.50;17.88;;;333.10;2329.60;;;;;;5006150;28;20026;-80
2023/10/11 01:38:48;;;;;;;33.65;19.17;;;333.10;2329.60;;;;;;5018051;28;20133;-79
2023/10/11 01:41:28;;;;;;;32.88;17.60;;;333.20;2329.60;;;;;;5004968;28;20571;-78
2023/10/11 01:43:56;;;;;;;29.98;17.48;;;333.20;2329.60;;;;;;4999297;28;20023;-80
2023/10/11 01:46:26;;;;;;;30.48;17.52;;;333.20;2329.60;;;;;;5020848;28;20034;-78
2023/10/11 01:48:57;;;;;;;28.30;17.90;;;333.20;2329.60;;;;;;5013593;28;20029;-79
2023/10/11 01:51:27;;;;;;;29.13;16.60;;;333.20;2329.60;;;;;;5014131;28;20041;-80
2023/10/11 01:54:06;;;;;;;25.38;15.32;;;333.20;2329.60;;;;;;5006310;28;20056;-81
2023/10/11 01:56:34;;;;;;;22.55;15.07;;;333.20;2329.60;;;;;;5011935;28;20033;-79
2023/10/11 01:59:01;;;;;;;23.40;14.30;;;333.10;2329.60;;;;;;5015523;28;20141;-79
2023/10/11 02:01:30;;;;;;;24.35;14.27;;;333.10;2329.60;;;;;;5013832;28;20405;-81
2023/10/11 02:03:58;;;;;;;23.45;14.20;;;333.10;2329.60;;;;;;5017636;28;20028;-81
2023/10/11 02:10:27;;;;;;;24.42;13.57;;;333.10;2329.60;;;;;;5021522;28;20033;-81
2023/10/11 02:12:57;;;;;;;23.52;14.35;;;333.10;2329.60;;;;;;5017379;28;20033;-78
2023/10/11 02:15:29;;;;;;;24.13;14.27;;;333.10;2329.60;;;;;;5006851;28;20026;-80
2023/10/11 02:17:55;;;;;;;25.05;16.23;;;333.10;2329.60;;;;;;5014517;28;20031;-80
2023/10/11 02:20:26;;;;;;;24.35;14.77;;;333.10;2329.60;;;;;;5018104;28;20064;-79
2023/10/11 02:22:55;;;;;;;26.75;14.82;;;333.10;2329.60;;;;;;5018035;28;20026;-81
2023/10/11 02:25:24;;;;;;;28.13;17.42;;;333.10;2329.60;;;;;;5022189;28;20061;-80
2023/10/11 02:27:52;;;;;;;26.50;16.10;;;333.00;2329.60;;;;;;5016444;28;20052;-79
2023/10/11 02:30:22;;;;;;;29.88;17.10;;;333.00;2329.60;;;;;;5017970;28;20018;-79
2023/10/11 02:32:52;;;;;;;28.83;18.05;;;333.00;2329.60;;;;;;5019396;28;20038;-81
2023/10/11 02:35:56;;;;;;;30.20;16.90;;;332.90;2329.60;;;;;;5021529;28;20033;-82
2023/10/11 02:38:26;;;;;;;25.88;15.95;;;333.00;2329.60;;;;;;5019766;28;20041;-82
2023/10/11 02:40:55;;;;;;;27.85;15.05;;;333.00;2329.60;;;;;;5018196;28;20033;-79
2023/10/11 02:43:25;;;;;;;25.80;14.85;;;333.10;2329.60;;;;;;5014425;28;20546;-81
2023/10/11 02:45:54;;;;;;;22.25;13.63;;;332.90;2329.60;;;;;;5022990;28;20002;-80
2023/10/11 02:48:20;;;;;;;28.35;14.85;;;333.00;2329.60;;;;;;5012120;28;20081;-82
2023/10/11 02:50:48;;;;;;;21.20;13.55;;;332.90;2329.60;;;;;;5019928;28;20030;-80
2023/10/11 02:53:21;;;;;;;24.60;13.68;;;332.90;2329.60;;;;;;5019021;28;20088;-79
2023/10/11 02:55:59;;;;;;;20.63;13.10;;;332.80;2329.60;;;;;;5020107;28;20090;-82
2023/10/11 02:58:31;;;;;;;23.98;13.88;;;332.80;2329.60;;;;;;5025265;28;20018;-80
2023/10/11 03:01:05;;;;;;;24.92;14.68;;;332.80;2329.60;;;;;;5024147;28;20018;-83
2023/10/11 03:03:30;;;;;;;22.48;14.52;;;332.80;2329.60;;;;;;5020467;28;20081;-81
2023/10/11 03:05:56;;;;;;;23.02;14.55;;;332.80;2329.60;;;;;;5025028;28;20022;-79
2023/10/11 03:08:26;;;;;;;23.83;15.00;;;308.10;2304.00;;;;;;5018523;28;20022;-82
2023/10/11 03:10:57;;;;;;;24.33;15.38;;;308.10;2304.00;;;;;;5018213;28;20038;-83
2023/10/11 03:13:26;;;;;;;24.88;15.82;;;307.90;2304.00;;;;;;5017702;28;20061;-81
2023/10/11 03:15:54;;;;;;;26.95;16.40;;;307.80;2304.00;;;;;;5016384;28;20021;-80
2023/10/11 03:18:32;;;;;;;25.58;15.93;;;307.80;2304.00;;;;;;5025132;28;20073;-81
2023/10/11 03:24:25;;;;;;;29.83;18.77;;;307.50;2304.00;;;;;;5018363;28;20513;-78
2023/10/11 03:26:51;;;;;;;32.50;19.48;;;307.40;2304.00;;;;;;5007600;28;20028;-79
2023/10/11 03:29:21;;;;;;;34.33;19.98;;;307.40;2304.00;;;;;;5016112;28;20086;-78
2023/10/11 03:31:47;;;;;;;36.75;20.08;;;307.50;2304.00;;;;;;5020285;28;20029;-80
2023/10/11 03:34:15;;;;;;;28.67;18.67;;;307.50;2304.00;;;;;;5012901;28;20030;-83
2023/10/11 03:36:43;;;;;;;31.45;18.20;;;307.60;2304.00;;;;;;5019986;28;20009;-83
2023/10/11 03:39:15;;;;;;;26.63;17.58;;;307.70;2304.00;;;;;;5018364;28;20538;-82
2023/10/11 03:41:45;;;;;;;28.52;16.88;;;307.70;2304.00;;;;;;5015807;28;20026;-83
2023/10/11 03:44:17;;;;;;;24.17;15.35;;;307.80;2304.00;;;;;;5023295;28;20086;-83
2023/10/11 03:46:47;;;;;;;23.60;15.50;;;307.80;2304.00;;;;;;5023433;28;20088;-83
2023/10/11 03:52:30;;;;;;;27.90;15.98;;;307.90;2304.00;;;;;;5015015;28;20034;-81
2023/10/11 03:55:12;;;;;;;25.52;15.55;;;307.90;2304.00;;;;;;5014222;28;20104;-81
2023/10/11 03:57:42;;;;;;;22.77;14.52;;;307.90;2304.00;;;;;;5022618;28;20435;-80
2023/10/11 04:02:56;;;;;;;19.13;13.18;;;307.80;2304.00;;;;;;5023509;28;20030;-80
2023/10/11 04:05:22;;;;;;;20.43;13.70;;;307.70;2304.00;;;;;;5020768;28;20048;-79
2023/10/11 04:07:48;;;;;;;23.02;14.13;;;307.60;2304.00;;;;;;5010064;28;20026;-79
2023/10/11 04:10:20;;;;;;;21.02;14.43;;;307.60;2304.00;;;;;;5007692;28;20033;-79
2023/10/11 04:12:47;;;;;;;21.67;14.77;;;307.50;2304.00;;;;;;5019782;28;20041;-80
2023/10/11 04:15:24;;;;;;;20.25;13.90;;;307.30;2304.00;;;;;;5019622;28;20029;-78
2023/10/11 04:17:51;;;;;;;21.05;13.93;;;307.40;2304.00;;;;;;5016542;28;20022;-79
2023/10/11 04:20:18;;;;;;;23.52;15.80;;;307.50;2304.00;;;;;;5026477;28;20018;-80
2023/10/11 04:23:24;;;;;;;23.38;15.38;;;307.50;2304.00;;;;;;5018584;28;20057;-79
2023/10/11 04:25:50;;;;;;;25.15;16.38;;;307.50;2304.00;;;;;;5006523;28;20053;-78
2023/10/11 04:28:16;;;;;;;27.90;17.70;;;307.50;2304.00;;;;;;5015386;28;20023;-78
2023/10/11 04:30:44;;;;;;;37.85;20.08;;;307.60;2304.00;;;;;;5019058;28;20034;-82
2023/10/11 04:33:19;;;;;;;32.38;19.05;;;307.50;2304.00;;;;;;5015926;28;20037;-81
2023/10/11 04:35:55;;;;;;;36.33;20.73;;;307.50;2304.00;;;;;;5012484;28;20037;-82
2023/10/11 04:38:21;;;;;;;37.63;20.95;;;307.50;2304.00;;;;;;5019130;28;20049;-83
2023/10/11 04:40:51;;;;;;;39.65;21.13;;;307.30;2304.00;;;;;;5022364;28;20030;-82
2023/10/11 04:43:29;;;;;;;41.15;21.80;;;307.30;2304.00;;;;;;5022722;28;20042;-80
2023/10/11 04:45:59;;;;;;;55.33;23.08;;;307.40;2304.00;;;;;;5024347;28;20418;-78
2023/10/11 04:48:33;;;;;;;51.22;23.67;;;307.30;2304.00;;;;;;5015718;28;20042;-82
2023/10/11 04:51:45;;;;;;;48.03;23.35;;;307.20;2304.00;;;;;;5011046;28;20041;-81
2023/10/11 04:54:13;;;;;;;62.63;24.55;;;307.20;2304.00;;;;;;5015431;28;20053;-80
2023/10/11 04:59:17;;;;;;;99.43;25.10;;;282.50;2278.40;;;;;;5011229;28;20049;-79
2023/10/11 05:04:16;;;;;;;47.60;24.02;;;307.20;2304.00;;;;;;5019149;28;20018;-82
2023/10/11 05:10:29;;;;;;;63.83;23.97;;;307.40;2304.00;;;;;;5031202;28;20044;-81
2023/10/11 05:13:05;;;;;;;59.83;23.85;;;307.40;2304.00;;;;;;5018549;28;20026;-83
2023/10/11 05:15:42;;;;;;;61.22;23.58;;;307.20;2304.00;;;;;;5022409;28;20018;-78
2023/10/11 05:18:09;;;;;;;52.58;22.95;;;282.40;2278.40;;;;;;5014303;28;20038;-83
2023/10/11 05:23:06;;;;;;;42.03;19.73;;;282.50;2278.40;;;;;;5016856;28;20052;-82
2023/10/11 05:33:59;;;;;;;24.02;15.70;;;308.00;2304.00;;;;;;4978717;28;20046;-80
2023/10/11 05:36:40;;;;;;;21.48;15.18;;;;;;;;;;4993046;28;20034;-80
2023/10/11 05:52:55;;;;;;;18.10;11.15;;;;;;;;;;5007278;28;20037;-80
2023/10/11 05:55:24;;;;;;;16.63;11.25;;;487.20;2380.80;;;;;;5007369;28;20089;-81
2023/10/11 05:57:51;;;;;;;14.18;9.80;;;;;;;;;;4996542;28;20084;-82
2023/10/11 06:00:23;;;;;;;12.35;9.55;;;;;;;;;;4993743;28;20030;-83
2023/10/11 06:02:51;;;;;;;12.32;9.63;;;;;;;;;;4992075;28;20119;-80
2023/10/11 06:05:19;;;;;;;14.82;10.40;;;;;;;;;;5006228;28;20026;-85
2023/10/11 06:08:00;;;;;;;12.45;9.70;;;589.20;2304.00;;;;;;4981517;28;20034;-84
2023/10/11 06:10:35;;;;;;;11.20;8.88;;;589.50;2227.20;;;;;;4993816;28;20034;-85
2023/10/11 06:13:07;;;;;;;11.75;8.90;;;;;;;;;;4995363;28;20062;-84
2023/10/11 06:15:35;;;;;;;11.40;9.27;;;;;;;;;;5015248;28;20042;-84
2023/10/11 06:18:01;;;;;;;11.63;8.85;;;;;;;;;;5013925;28;20088;-85
2023/10/11 06:20:29;;;;;;;12.45;8.90;;;;;;;;;;5015441;28;20092;-84
2023/10/11 06:23:13;;;;;;;11.63;8.63;;;;;;;;;;5014632;28;20022;-85
2023/10/11 06:25:53;;;;;;;12.40;9.02;;;;;;;;;;5014830;28;20551;-84
2023/10/11 06:28:30;;;;;;;12.25;9.02;;;;;;;;;;5014703;28;20123;-84
2023/10/11 06:31:00;;;;;;;11.30;8.77;;;;;;;;;;5014630;28;20103;-83
2023/10/11 06:33:27;;;;;;;11.35;8.90;;;;;;;;;;5014726;28;20072;-84
2023/10/11 06:35:53;;;;;;;16.08;9.15;;;;;;;;;;5007930;28;20019;-83
2023/10/11 06:38:21;;;;;;;12.32;9.80;;;;;;;;;;5017946;28;20029;-85
2023/10/11 06:40:54;;;;;;;12.88;9.30;;;;;;;;;;5013214;28;20022;-85
2023/10/11 06:43:20;;;;;;;11.30;9.65;;;;;;;;;;5003803;28;20046;-84
2023/10/11 06:45:49;;;;;;;11.82;9.80;;;;;;;;;;4996869;28;20041;-84
2023/10/11 06:48:15;;;;;;;12.13;10.10;;;;;;;;;;5005779;28;20042;-81
2023/10/11 06:50:41;;;;;;;13.02;10.40;;;;;;;;;;5014275;28;20022;-83
2023/10/11 06:53:08;;;;;;;13.77;9.60;;;;;;;;;;5006618;28;20104;-86
2023/10/11 06:55:47;;;;;;;13.55;10.30;;;;;;;;;;5009323;28;20045;-84
2023/10/11 06:58:19;;;;;;;13.00;9.88;;;;;;;;;;5015423;28;20061;-84
2023/10/11 07:00:53;;;;;;;13.18;10.18;;;;;;;;;;5009726;28;20038;-84
2023/10/11 07:06:09;;;;;;;14.43;10.32;;;;;;;;;;5011351;28;20026;-84
2023/10/11 07:08:35;;;;;;;15.02;11.10;;;666.00;1868.80;;;;;;4997168;28;20025;-85
2023/10/11 07:11:17;;;;;;;13.68;10.68;;;665.80;1868.80;;;;;;5003469;28;20022;-85
2023/10/11 07:14:05;;;;;;;16.23;10.93;;;666.50;1843.20;;;;;;4998260;28;20599;-85
2023/10/11 07:16:33;;;;;;;16.58;10.45;;;666.10;1868.80;;;;;;4997190;28;20060;-84
2023/10/11 07:18:59;;;;;;;15.43;10.40;;;666.00;1894.40;;;;;;5016057;28;20049;-85
2023/10/11 07:22:25;;;;;;;14.98;11.52;;;691.20;1843.20;;;;;;5015583;28;20030;-88
2023/10/11 07:25:18;;;;;;;12.68;9.15;;;691.80;1817.60;;;;;;5020625;28;20050;-87
2023/10/11 07:27:44;;;;;;;13.40;9.50;;;716.80;1766.40;;;;;;5020796;28;20025;-87
2023/10/11 07:30:17;;;;;;;11.27;8.57;;;717.00;1792.00;;;;;;5021454;28;20051;-84
2023/10/11 07:32:43;;;;;;;11.80;9.15;;;717.30;1715.20;;;;;;5019322;28;20042;-85
2023/10/11 07:35:27;;;;;;;12.73;9.07;;;717.00;1740.80;;;;;;5018678;28;20096;-86
2023/10/11 07:37:52;;;;;;;12.38;9.20;;;716.80;1740.80;;;;;;5018029;28;20025;-85
2023/10/11 07:40:31;;;;;;;10.52;8.60;;;;;;;;;;5013178;28;20030;-84
2023/10/11 07:42:57;;;;;;;13.02;8.00;;;;;;;;;;5006661;28;20477;-84
2023/10/11 07:45:26;;;;;;;18.00;11.38;;;;;;;;;;5002779;28;20162;-85
2023/10/11 07:47:52;;;;;;;11.45;8.60;;;666.30;1817.60;;;;;;5008925;28;20048;-83
2023/10/11 07:50:25;;;;;;;10.95;7.40;;;666.20;1843.20;;;;;;5006528;28;20592;-82
2023/10/11 07:52:51;;;;;;;12.68;7.10;;;615.30;1971.20;;;;;;4997778;28;20042;-83
2023/10/11 07:55:17;;;;;;;7.07;5.35;;;615.10;1996.80;;;;;;4998532;28;20081;-85
2023/10/11 07:57:46;;;;;;;9.57;5.68;;;614.70;2022.40;;;;;;5013111;28;20396;-84
2023/10/11 08:00:20;;;;;;;7.57;5.30;;;;;;;;;;5016982;28;20084;-82
2023/10/11 08:03:05;;;;;;;6.47;4.40;;;;;;;;;;5015622;28;20057;-81
2023/10/11 08:05:45;;;;;;;8.02;4.43;;;588.90;2432.00;;;;;;5015935;28;20424;-83
2023/10/11 08:08:31;;;;;;;7.25;4.47;;;563.90;2355.20;;;;;;5015360;28;20037;-84
2023/10/11 08:10:58;;;;;;;8.88;5.00;;;564.10;2432.00;;;;;;5015739;28;20116;-81
2023/10/11 08:13:25;;;;;;;8.27;4.82;;;563.50;2432.00;;;;;;5016391;28;20084;-83
2023/10/11 08:15:57;;;;;;;8.77;4.75;;;;;;;;;;5014315;28;20018;-80
2023/10/11 08:18:24;;;;;;;7.55;5.00;;;563.90;2432.00;;;;;;5014307;28;20050;-86
2023/10/11 08:20:50;;;;;;;8.70;4.80;;;563.50;2432.00;;;;;;5015634;28;20076;-82
2023/10/11 08:23:29;;;;;;;10.05;5.10;;;563.50;2432.00;;;;;;5011836;28;20459;-80
2023/10/11 08:25:56;;;;;;;8.88;4.70;;;563.50;2432.00;;;;;;5014729;28;20361;-89
2023/10/11 08:28:29;;;;;;;8.88;4.72;;;563.60;2432.00;;;;;;5015241;28;20113;-86
2023/10/11 08:30:58;;;;;;;6.68;4.32;;;563.80;2432.00;;;;;;5011191;28;20090;-87
2023/10/11 08:33:25;;;;;;;8.73;5.55;;;564.00;2432.00;;;;;;5011843;28;20038;-84
2023/10/11 08:35:53;;;;;;;9.80;5.18;;;588.80;2432.00;;;;;;4999673;28;20030;-84
2023/10/11 08:38:24;;;;;;;7.63;5.18;;;588.90;2432.00;;;;;;5008186;28;20575;-85
2023/10/11 08:40:57;;;;;;;8.38;4.85;;;564.00;2432.00;;;;;;5006543;28;20025;-84
2023/10/11 08:43:23;;;;;;;9.05;4.78;;;564.00;2432.00;;;;;;5007165;28;20029;-82
2023/10/11 08:45:50;;;;;;;11.07;5.47;;;589.00;2432.00;;;;;;5009621;28;20030;-81
2023/10/11 08:48:17;;;;;;;8.50;5.10;;;589.20;2432.00;;;;;;5006778;28;20061;-84
2023/10/11 08:50:51;;;;;;;9.35;4.97;;;589.00;2432.00;;;;;;5002439;28;20026;-82
2023/10/11 08:53:22;;;;;;;11.52;4.75;;;588.80;2432.00;;;;;;4994527;28;20045;-81
2023/10/11 08:55:56;;;;;;;8.68;5.15;;;;;;;;;;4997369;28;20926;-82
2023/10/11 08:58:27;;;;;;;9.53;5.00;;;589.30;2432.00;;;;;;5014565;28;20041;-83
2023/10/11 09:00:55;;;;;;;7.35;4.80;;;614.60;2406.40;;;;;;5005948;28;20022;-83
2023/10/11 09:03:23;;;;;;;8.20;5.20;;;614.70;2406.40;;;;;;5009912;28;20097;-80
2023/10/11 09:05:58;;;;;;;11.93;8.05;;;589.60;2406.40;;;;;;5012813;28;20044;-78
2023/10/11 09:08:32;;;;;;;9.25;5.13;;;589.50;2432.00;;;;;;5014371;28;20030;-82
2023/10/11 09:11:28;;;;;;;6.97;4.90;;;614.50;2406.40;;;;;;5014676;28;20029;-79
2023/10/11 09:14:24;;;;;;;8.50;4.80;;;614.70;2355.20;;;;;;5013244;28;20042;-78
2023/10/11 09:16:51;;;;;;;10.48;4.85;;;589.70;2380.80;;;;;;5014834;28;20077;-79
2023/10/11 09:19:19;;;;;;;30.10;6.03;;;614.40;2355.20;;;;;;5014359;28;20030;-78
2023/10/11 09:22:03;;;;;;;8.77;5.32;;;589.70;2329.60;;;;;;5014513;28;20022;-78
2023/10/11 09:24:38;;;;;;;11.67;5.43;;;589.60;2355.20;;;;;;5014094;28;20145;-79
2023/10/11 09:29:38;;;;;;;8.48;4.70;;;589.60;2406.40;;;;;;5028683;28;20025;-82
2023/10/11 09:32:05;;;;;;;8.38;5.20;;;614.60;2329.60;;;;;;5032777;28;20040;-82
2023/10/11 09:34:32;;;;;;;7.18;4.18;;;614.60;2329.60;;;;;;5034302;28;20029;-83
2023/10/11 09:36:59;;;;;;;7.22;4.88;;;;;;;;;;5034056;28;20025;-81
2023/10/11 09:39:29;;;;;;;7.38;4.05;;;;;;;;;;5034416;28;20029;-83
2023/10/11 09:42:02;;;;;;;7.50;4.50;;;;;;;;;;5032937;28;20112;-82
2023/10/11 09:44:37;;;;;;;9.57;4.68;;;640.00;2201.60;;;;;;5034307;28;20033;-85
2023/10/11 09:47:07;;;;;;;7.07;4.13;;;614.90;2227.20;;;;;;5033418;28;20033;-80
2023/10/11 09:49:41;;;;;;;9.18;4.40;;;615.10;2176.00;;;;;;5033851;28;20033;-82
2023/10/11 09:52:08;;;;;;;;;;;615.10;2176.00;;;;;;5034453;28;20074;-82
2023/10/11 09:54:37;;;;;;;8.80;4.28;;;615.10;2201.60;;;;;;5033851;28;20385;-82
2023/10/11 09:57:30;;;;;;;6.72;4.13;;;640.00;2150.40;;;;;;5033924;28;20088;-82
2023/10/11 10:00:17;;;;;;;6.72;4.22;;;615.30;2176.00;;;;;;5033992;28;20106;-81
2023/10/11 10:02:50;;;;;;;6.88;4.00;;;615.30;2150.40;;;;;;5033973;28;20176;-81
2023/10/11 10:05:22;;;;;;;7.82;4.00;;;615.00;2176.00;;;;;;5034284;28;20041;-81
2023/10/11 10:07:51;;;;;;;7.90;4.05;;;640.20;2124.80;;;;;;5033653;28;20029;-81
2023/10/11 10:10:26;;;;;;;8.77;3.60;;;640.40;2073.60;;;;;;5033424;28;20025;-81
2023/10/11 10:12:56;;;;;;;6.70;3.40;;;665.60;2022.40;;;;;;5033422;28;20045;-80
2023/10/11 10:15:23;;;;;;;6.30;3.95;;;640.80;1996.80;;;;;;5033847;28;20024;-79
2023/10/11 10:18:00;;;;;;;8.07;3.60;;;640.70;2048.00;;;;;;5032419;28;20374;-78
2023/10/11 10:20:33;;;;;;;6.57;3.80;;;640.40;2022.40;;;;;;5032377;28;20037;-79
2023/10/11 10:23:17;;;;;;;8.77;4.10;;;;;;;;;;5033481;28;20026;-80
2023/10/11 10:25:48;;;;;;;6.68;3.47;;;;;;;;;;5032089;28;20154;-79
2023/10/11 10:28:32;;;;;;;8.02;4.05;;;615.00;2124.80;;;;;;5029820;28;20736;-81
2023/10/11 10:31:11;;;;;;;8.07;3.53;;;614.70;2124.80;;;;;;5013605;28;20030;-80
2023/10/11 10:33:38;;;;;;;7.40;3.35;;;614.60;2150.40;;;;;;5013593;28;20038;-80
2023/10/11 10:36:21;;;;;;;6.32;3.47;;;615.00;2150.40;;;;;;5013384;28;20093;-81
2023/10/11 10:39:24;;;;;;;6.35;3.63;;;614.90;2150.40;;;;;;5013475;28;20533;-80
2023/10/11 10:42:13;;;;;;;6.80;3.65;;;615.10;2124.80;;;;;;5013697;28;20034;-81
2023/10/11 10:44:51;;;;;;;5.03;3.20;;;640.20;2073.60;;;;;;5013013;28;20080;-80
2023/10/11 10:47:31;;;;;;;9.23;3.83;;;640.10;2048.00;;;;;;5012527;28;20022;-81
2023/10/11 10:50:03;;;;;;;8.73;3.88;;;615.30;2048.00;;;;;;4997825;28;20022;-81
2023/10/11 10:52:30;;;;;;;5.18;3.53;;;640.00;2048.00;;;;;;5011334;28;20110;-80
2023/10/11 10:55:05;;;;;;;7.13;3.72;;;640.60;1996.80;;;;;;5011197;28;20096;-80
2023/10/11 10:57:36;;;;;;;7.35;3.70;;;640.00;2022.40;;;;;;5012057;28;20022;-80
2023/10/11 11:00:08;;;;;;;7.00;4.03;;;640.40;2022.40;;;;;;5015082;28;20107;-79
2023/10/11 11:02:38;;;;;;;5.82;4.22;;;640.50;1996.80;;;;;;5010353;28;20034;-81
2023/10/11 11:05:24;;;;;;;9.02;4.53;;;640.50;1996.80;;;;;;5012381;28;20077;-80
2023/10/11 11:07:50;;;;;;;7.18;4.60;;;640.80;1996.80;;;;;;5004805;28;20037;-80
2023/10/11 11:10:20;;;;;;;10.63;4.50;;;665.80;1971.20;;;;;;5001442;28;20041;-80
2023/10/11 11:12:49;;;;;;;11.77;4.43;;;640.80;1996.80;;;;;;5004817;28;20125;-79
2023/10/11 11:15:21;;;;;;;8.05;4.10;;;665.90;1971.20;;;;;;5003609;28;20117;-79
2023/10/11 11:17:50;;;;;;;7.97;4.13;;;666.10;1945.60;;;;;;5006054;28;20057;-79
2023/10/11 11:20:40;;;;;;;7.80;4.13;;;691.20;1894.40;;;;;;5005562;28;20041;-78
2023/10/11 11:23:04;;;;;;;6.85;3.83;;;691.20;1843.20;;;;;;5006496;28;20137;-79
2023/10/11 11:25:34;;;;;;;8.93;4.20;;;691.30;1868.80;;;;;;5005972;28;20087;-79
2023/10/11 11:28:16;;;;;;;9.02;4.00;;;666.50;1894.40;;;;;;5003234;28;20088;-79
2023/10/11 11:31:30;;;;;;;7.47;3.63;;;691.30;1868.80;;;;;;5010876;28;20026;-78
2023/10/11 11:34:26;;;;;;;9.38;4.22;;;691.20;1868.80;;;;;;5009129;28;20060;-78
2023/10/11 11:36:57;;;;;;;8.38;3.83;;;666.30;1868.80;;;;;;5008630;28;20540;-79
2023/10/11 11:39:36;;;;;;;8.35;3.90;;;666.50;1817.60;;;;;;5003766;28;20185;-79
2023/10/11 11:42:08;;;;;;;8.48;4.15;;;691.80;1792.00;;;;;;5003566;28;20117;-78
2023/10/11 11:44:33;;;;;;;8.80;3.58;;;692.00;1740.80;;;;;;5001063;28;20045;-77
2023/10/11 11:47:05;;;;;;;6.80;4.07;;;692.10;1715.20;;;;;;5005288;28;20034;-79
2023/10/11 11:49:35;;;;;;;7.80;3.70;;;691.20;1792.00;;;;;;5005173;28;20056;-78
2023/10/11 11:52:00;;;;;;;6.53;3.95;;;666.10;1843.20;;;;;;5005450;28;20025;-79
2023/10/11 11:54:29;;;;;;;5.65;3.97;;;666.10;1843.20;;;;;;4998044;28;20026;-78
2023/10/11 11:56:56;;;;;;;6.75;3.97;;;691.20;1817.60;;;;;;5006884;28;20481;-78
2023/10/11 11:59:24;;;;;;;8.23;4.15;;;666.50;1817.60;;;;;;4994202;28;20034;-78
2023/10/11 12:01:59;;;;;;;7.05;4.35;;;691.60;1766.40;;;;;;4994833;28;20060;-78
2023/10/11 12:04:29;;;;;;;8.18;4.43;;;691.50;1792.00;;;;;;4996592;28;20037;-78
2023/10/11 12:07:09;;;;;;;8.73;4.22;;;691.30;1792.00;;;;;;4998415;28;20062;-78
2023/10/11 12:09:37;;;;;;;10.07;4.40;;;691.20;1766.40;;;;;;5000418;28;20032;-77
2023/10/11 12:12:05;;;;;;;6.32;4.28;;;691.30;1792.00;;;;;;5014093;28;20038;-77
2023/10/11 12:14:38;;;;;;;6.95;4.93;;;691.60;1740.80;;;;;;5010479;28;21464;-78
2023/10/11 12:17:11;;;;;;;8.07;4.90;;;691.80;1740.80;;;;;;4997128;28;20038;-78
2023/10/11 12:19:37;;;;;;;14.25;4.80;;;691.80;1715.20;;;;;;5008695;28;20527;-77
2023/10/11 12:22:04;;;;;;;6.70;4.50;;;691.60;1740.80;;;;;;5007495;28;20097;-79
2023/10/11 12:24:30;;;;;;;7.35;4.60;;;692.00;1766.40;;;;;;5004337;28;20522;-81
2023/10/11 12:26:58;;;;;;;6.95;4.88;;;691.60;1740.80;;;;;;5007466;28;20572;-79
2023/10/11 12:29:26;;;;;;;8.27;5.00;;;666.30;1766.40;;;;;;5003069;28;20049;-84
2023/10/11 12:31:55;;;;;;;8.93;5.15;;;691.20;1766.40;;;;;;5009686;28;20037;-79
2023/10/11 12:34:26;;;;;;;8.48;4.55;;;666.30;1766.40;;;;;;5001801;28;20053;-82
2023/10/11 12:36:53;;;;;;;7.93;4.82;;;691.30;1766.40;;;;;;4995063;28;20030;-78
2023/10/11 12:39:25;;;;;;;7.85;4.35;;;691.30;1766.40;;;;;;5002734;28;20053;-82
2023/10/11 12:41:53;;;;;;;11.43;4.65;;;691.20;1740.80;;;;;;5004365;28;20641;-77
2023/10/11 12:44:20;;;;;;;7.43;4.50;;;691.40;1740.80;;;;;;5002655;28;20022;-78
2023/10/11 12:46:49;;;;;;;8.60;4.50;;;666.40;1740.80;;;;;;5000952;28;20038;-77
2023/10/11 12:49:16;;;;;;;6.60;4.40;;;666.40;1766.40;;;;;;5010144;28;20034;-84
2023/10/11 12:51:44;;;;;;;7.63;4.32;;;666.30;1766.40;;;;;;5000370;28;20068;-79
2023/10/11 12:54:10;;;;;;;9.57;4.70;;;666.40;1740.80;;;;;;4999586;28;20088;-82
2023/10/11 12:56:37;;;;;;;8.93;4.40;;;691.20;1740.80;;;;;;5011867;28;20124;-78
2023/10/11 12:59:10;;;;;;;6.55;4.07;;;691.20;1715.20;;;;;;5005319;28;20032;-83
2023/10/11 13:01:37;;;;;;;8.93;4.20;;;666.40;1715.20;;;;;;5013137;28;20343;-87
2023/10/11 13:04:09;;;;;;;7.35;3.92;;;666.40;1715.20;;;;;;5011197;28;20472;-84
2023/10/11 13:06:39;;;;;;;8.15;4.18;;;691.30;1689.60;;;;;;5006446;28;20372;-83
2023/10/11 13:09:15;;;;;;;6.65;4.47;;;691.40;1689.60;;;;;;5002841;28;20468;-80
2023/10/11 13:11:46;;;;;;;8.50;4.60;;;691.20;1715.20;;;;;;5006923;28;20046;-80
2023/10/11 13:14:20;;;;;;;8.60;4.30;;;666.50;1715.20;;;;;;5009542;28;20395;-84
2023/10/11 13:17:00;;;;;;;10.25;4.78;;;666.40;1689.60;;;;;;4997310;28;20477;-81
2023/10/11 13:19:27;;;;;;;9.65;4.68;;;666.10;1715.20;;;;;;4998299;28;20030;-79
2023/10/11 13:21:55;;;;;;;9.25;5.15;;;666.40;1689.60;;;;;;4998816;28;20413;-83
2023/10/11 13:24:23;;;;;;;7.10;4.47;;;691.30;1689.60;;;;;;5004142;28;20659;-77
2023/10/11 13:26:51;;;;;;;6.38;4.60;;;691.20;1689.60;;;;;;4994416;28;20038;-78
2023/10/11 13:29:18;;;;;;;8.15;3.83;;;666.50;1689.60;;;;;;5011529;28;20110;-80
2023/10/11 13:31:54;;;;;;;10.40;4.72;;;666.50;1689.60;;;;;;5010017;28;20403;-80
2023/10/11 13:34:23;;;;;;;5.95;3.80;;;691.20;1664.00;;;;;;5004904;28;20129;-78
2023/10/11 13:36:49;;;;;;;8.63;4.30;;;666.40;1664.00;;;;;;4996442;28;20105;-82
2023/10/11 13:39:27;;;;;;;7.00;3.83;;;666.50;1664.00;;;;;;5007481;28;20105;-81
2023/10/11 13:41:57;;;;;;;6.47;4.00;;;691.30;1638.40;;;;;;5005091;28;20049;-83
2023/10/11 13:44:24;;;;;;;8.07;4.15;;;666.50;1638.40;;;;;;5009907;28;20029;-79